createdAt,value
2022-10-19T00:01:22.654Z,100.00
2022-10-19T00:03:53.710Z,100.00
2022-10-19T00:06:28.713Z,100.00
2022-10-19T00:08:59.713Z,100.00
2022-10-19T00:11:29.224Z,100.00
2022-10-19T00:13:58.807Z,100.00
2022-10-19T00:16:28.653Z,100.00
2022-10-19T00:18:58.002Z,100.00
2022-10-19T00:21:28.806Z,100.00
2022-10-19T00:23:57.294Z,100.00
2022-10-19T00:26:26.254Z,100.00
2022-10-19T00:28:54.983Z,100.00
2022-10-19T00:31:23.806Z,100.00
2022-10-19T00:33:52.837Z,100.00
2022-10-19T00:36:24.191Z,100.00
2022-10-19T00:38:55.059Z,100.00
2022-10-19T00:41:29.790Z,100.00
2022-10-19T00:44:04.089Z,100.00
2022-10-19T00:46:35.358Z,100.00
2022-10-19T00:49:10.648Z,100.00
2022-10-19T00:51:41.842Z,100.00
2022-10-19T00:54:12.758Z,100.00
2022-10-19T00:56:43.678Z,100.00
2022-10-19T00:59:14.961Z,100.00
2022-10-19T01:01:45.153Z,100.00
2022-10-19T01:04:14.304Z,100.00
2022-10-19T01:06:43.518Z,100.00
2022-10-19T01:09:13.333Z,100.00
2022-10-19T01:11:53.370Z,100.00
2022-10-19T01:14:33.037Z,100.00
2022-10-19T01:17:08.871Z,100.00
2022-10-19T01:20:02.054Z,100.00
2022-10-19T01:22:42.862Z,100.00
2022-10-19T01:25:23.823Z,100.00
2022-10-19T01:28:04.401Z,100.00
2022-10-19T01:30:48.380Z,100.00
2022-10-19T01:33:32.079Z,100.00
2022-10-19T01:36:10.196Z,100.00
2022-10-19T01:38:44.529Z,100.00
2022-10-19T01:41:18.673Z,100.00
2022-10-19T01:43:53.969Z,100.00
2022-10-19T01:46:28.246Z,100.00
2022-10-19T01:49:02.516Z,100.00
2022-10-19T01:51:34.374Z,100.00
2022-10-19T01:54:07.651Z,100.00
2022-10-19T01:56:38.649Z,100.00
2022-10-19T01:59:10.250Z,100.00
2022-10-19T02:01:45.099Z,100.00
2022-10-19T02:04:16.433Z,100.00
2022-10-19T02:06:45.369Z,100.00
2022-10-19T02:09:18.028Z,100.00
2022-10-19T02:11:50.398Z,100.00
2022-10-19T02:14:23.247Z,100.00
2022-10-19T02:16:56.288Z,100.00
2022-10-19T02:21:58.520Z,100.00
2022-10-19T02:24:27.069Z,100.00
2022-10-19T02:26:57.010Z,100.00
2022-10-19T02:29:25.433Z,100.00
2022-10-19T02:31:55.667Z,100.00
2022-10-19T02:34:24.306Z,100.00
2022-10-19T02:36:52.892Z,100.00
2022-10-19T02:39:21.608Z,100.00
2022-10-19T02:41:54.584Z,100.00
2022-10-19T02:44:27.487Z,100.00
2022-10-19T02:47:03.157Z,100.00
2022-10-19T02:49:35.120Z,100.00
2022-10-19T02:52:05.717Z,100.00
2022-10-19T02:54:34.331Z,100.00
2022-10-19T02:57:04.127Z,100.00
2022-10-19T02:59:32.486Z,100.00
2022-10-19T03:02:02.313Z,100.00
2022-10-19T03:04:30.719Z,100.00
2022-10-19T03:06:59.074Z,100.00
2022-10-19T03:09:27.785Z,100.00
2022-10-19T03:11:56.600Z,100.00
2022-10-19T03:14:25.029Z,100.00
2022-10-19T03:16:53.455Z,100.00
2022-10-19T03:19:23.372Z,100.00
2022-10-19T03:21:54.698Z,100.00
2022-10-19T03:24:23.453Z,100.00
2022-10-19T03:26:51.770Z,100.00
2022-10-19T03:29:20.216Z,100.00
2022-10-19T03:31:48.635Z,100.00
2022-10-19T03:34:17.014Z,100.00
2022-10-19T03:36:46.718Z,100.00
2022-10-19T03:39:16.995Z,100.00
2022-10-19T03:41:45.621Z,100.00
2022-10-19T03:44:14.096Z,100.00
2022-10-19T03:46:42.561Z,100.00
2022-10-19T03:49:11.344Z,100.00
2022-10-19T03:51:39.682Z,100.00
2022-10-19T03:54:14.756Z,100.00
2022-10-19T03:56:43.874Z,100.00
2022-10-19T03:59:15.097Z,100.00
2022-10-19T04:01:46.223Z,100.00
2022-10-19T04:04:17.152Z,100.00
2022-10-19T04:06:47.458Z,100.00
2022-10-19T04:09:20.129Z,100.00
2022-10-19T04:11:49.468Z,100.00
2022-10-19T04:14:31.640Z,100.00
2022-10-19T04:17:02.330Z,100.00
2022-10-19T04:19:30.728Z,100.00
2022-10-19T04:21:59.359Z,100.00
2022-10-19T04:24:29.095Z,100.00
2022-10-19T04:26:57.879Z,100.00
2022-10-19T04:29:29.800Z,100.00
2022-10-19T04:31:58.705Z,100.00
2022-10-19T04:34:27.152Z,100.00
2022-10-19T04:36:55.565Z,100.00
2022-10-19T04:39:23.893Z,100.00
2022-10-19T04:41:53.691Z,100.00
2022-10-19T04:46:55.883Z,100.00
2022-10-19T04:49:24.727Z,100.00
2022-10-19T04:51:53.244Z,100.00
2022-10-19T04:54:21.757Z,100.00
2022-10-19T04:56:50.103Z,100.00
2022-10-19T04:59:19.799Z,100.00
2022-10-19T05:01:48.240Z,100.00
2022-10-19T05:04:16.766Z,100.00
2022-10-19T05:06:45.151Z,100.00
2022-10-19T05:09:13.687Z,100.00
2022-10-19T05:11:42.125Z,100.00
2022-10-19T05:14:10.567Z,100.00
2022-10-19T05:16:40.656Z,100.00
2022-10-19T05:19:13.540Z,100.00
2022-10-19T05:21:42.050Z,100.00
2022-10-19T05:24:13.226Z,100.00
2022-10-19T05:26:41.538Z,100.00
2022-10-19T05:29:13.690Z,100.00
2022-10-19T05:31:43.563Z,100.00
2022-10-19T05:34:12.000Z,100.00
2022-10-19T05:36:41.135Z,100.00
2022-10-19T05:39:13.140Z,100.00
2022-10-19T05:41:43.707Z,100.00
2022-10-19T05:44:15.641Z,100.00
2022-10-19T05:46:45.905Z,100.00
2022-10-19T05:49:15.693Z,100.00
2022-10-19T05:51:44.897Z,100.00
2022-10-19T05:54:14.222Z,100.00
2022-10-19T05:56:43.652Z,100.00
2022-10-19T05:59:16.042Z,100.00
2022-10-19T06:01:46.225Z,100.00
2022-10-19T06:06:48.931Z,100.00
2022-10-19T06:09:17.330Z,100.00
2022-10-19T06:11:45.724Z,100.00
2022-10-19T06:14:16.753Z,100.00
2022-10-19T06:16:46.810Z,100.00
2022-10-19T06:19:15.367Z,100.00
2022-10-19T06:21:45.997Z,100.00
2022-10-19T06:24:16.819Z,100.00
2022-10-19T06:26:45.193Z,100.00
2022-10-19T06:29:13.678Z,100.00
2022-10-19T06:31:46.769Z,100.00
2022-10-19T06:34:19.362Z,100.00
2022-10-19T06:36:47.774Z,100.00
2022-10-19T06:39:16.249Z,100.00
2022-10-19T06:41:44.586Z,100.00
2022-10-19T06:44:22.489Z,100.00
2022-10-19T06:46:50.917Z,100.00
2022-10-19T06:49:20.668Z,100.00
2022-10-19T06:51:49.174Z,100.00
2022-10-19T06:54:17.594Z,100.00
2022-10-19T06:56:46.139Z,100.00
2022-10-19T06:59:14.985Z,100.00
2022-10-19T07:01:43.693Z,100.00
2022-10-19T07:04:12.134Z,100.00
2022-10-19T07:06:41.906Z,100.00
2022-10-19T07:09:10.387Z,100.00
2022-10-19T07:11:43.589Z,100.00
2022-10-19T07:14:14.367Z,100.00
2022-10-19T07:16:42.811Z,100.00
2022-10-19T07:19:11.672Z,100.00
2022-10-19T07:21:41.758Z,100.00
2022-10-19T07:24:11.609Z,100.00
2022-10-19T07:26:40.058Z,100.00
2022-10-19T07:29:08.756Z,100.00
2022-10-19T07:31:37.314Z,100.00
2022-10-19T07:34:06.879Z,100.00
2022-10-19T07:36:36.924Z,100.00
2022-10-19T07:39:06.414Z,100.00
2022-10-19T07:41:36.228Z,100.00
2022-10-19T07:44:05.479Z,100.00
2022-10-19T07:46:35.827Z,100.00
2022-10-19T07:49:09.585Z,100.00
2022-10-19T07:51:40.990Z,100.00
2022-10-19T07:54:09.722Z,100.00
2022-10-19T07:56:39.628Z,100.00
2022-10-19T07:59:08.028Z,100.00
2022-10-19T08:01:41.087Z,100.00
2022-10-19T08:06:58.094Z,100.00
2022-10-19T08:09:51.403Z,100.00
2022-10-19T08:12:16.766Z,100.00
2022-10-19T08:14:45.124Z,100.00
2022-10-19T08:17:17.397Z,100.00
2022-10-19T08:19:45.852Z,100.00
2022-10-19T08:22:14.655Z,100.00
2022-10-19T08:24:43.250Z,100.00
2022-10-19T08:27:13.477Z,100.00
2022-10-19T08:29:43.260Z,100.00
2022-10-19T08:32:11.806Z,100.00
2022-10-19T08:34:40.351Z,100.00
2022-10-19T08:37:19.838Z,100.00
2022-10-19T08:39:57.095Z,100.00
2022-10-19T08:42:34.999Z,100.00
2022-10-19T08:45:19.831Z,100.00
2022-10-19T08:48:01.426Z,100.00
2022-10-19T08:50:37.103Z,100.00
2022-10-19T08:53:08.822Z,100.00
2022-10-19T08:55:45.611Z,100.00
2022-10-19T08:58:27.726Z,100.00
2022-10-19T09:01:03.855Z,100.00
2022-10-19T09:03:56.309Z,100.00
2022-10-19T09:06:30.618Z,100.00
2022-10-19T09:08:59.647Z,100.00
2022-10-19T09:11:32.119Z,100.00
2022-10-19T09:14:06.702Z,100.00
2022-10-19T09:16:36.590Z,100.00
2022-10-19T09:19:12.498Z,100.00
2022-10-19T09:21:47.629Z,100.00
2022-10-19T09:24:19.812Z,100.00
2022-10-19T09:26:53.577Z,100.00
2022-10-19T09:29:27.696Z,100.00
2022-10-19T09:32:01.776Z,100.00
2022-10-19T09:34:35.934Z,100.00
2022-10-19T09:37:05.135Z,100.00
2022-10-19T09:39:35.259Z,95.59
2022-10-19T09:42:09.420Z,90.90
2022-10-19T09:44:40.953Z,78.91
2022-10-19T09:47:27.520Z,77.48
2022-10-19T09:50:10.337Z,74.86
2022-10-19T09:52:40.487Z,68.78
2022-10-19T09:55:21.590Z,64.93
2022-10-19T09:57:51.768Z,62.43
2022-10-19T10:00:22.653Z,61.13
2022-10-19T10:02:54.078Z,60.15
2022-10-19T10:05:32.573Z,60.48
2022-10-19T10:08:01.365Z,58.88
2022-10-19T10:10:34.518Z,57.81
2022-10-19T10:13:03.335Z,55.30
2022-10-19T10:15:42.262Z,55.33
2022-10-19T10:18:16.605Z,56.12
2022-10-19T10:21:12.981Z,56.26
2022-10-19T10:23:41.659Z,59.89
2022-10-19T10:26:19.290Z,57.22
2022-10-19T10:28:49.904Z,54.50
2022-10-19T10:31:24.144Z,55.90
2022-10-19T10:34:10.750Z,54.23
2022-10-19T10:36:52.318Z,52.37
2022-10-19T10:39:20.831Z,50.97
2022-10-19T10:41:50.118Z,50.45
2022-10-19T10:44:22.070Z,48.79
2022-10-19T10:46:57.760Z,49.63
2022-10-19T10:49:30.143Z,46.38
2022-10-19T10:52:02.623Z,45.82
2022-10-19T10:54:32.993Z,45.36
2022-10-19T10:57:12.311Z,48.26
2022-10-19T10:59:49.282Z,48.46
2022-10-19T11:02:31.330Z,49.95
2022-10-19T11:05:06.964Z,48.46
2022-10-19T11:07:36.991Z,51.65
2022-10-19T11:10:14.363Z,52.96
2022-10-19T11:12:47.418Z,51.58
2022-10-19T11:15:22.996Z,49.60
2022-10-19T11:18:07.365Z,48.49
2022-10-19T11:20:43.498Z,47.20
2022-10-19T11:23:20.289Z,48.05
2022-10-19T11:26:11.615Z,48.11
2022-10-19T11:28:54.681Z,47.56
2022-10-19T11:31:36.477Z,48.86
2022-10-19T11:34:25.843Z,46.81
2022-10-19T11:37:01.208Z,44.42
2022-10-19T11:39:46.069Z,43.48
2022-10-19T11:42:24.379Z,43.48
2022-10-19T11:45:05.559Z,42.97
2022-10-19T11:47:51.614Z,44.68
2022-10-19T11:50:46.605Z,48.68
2022-10-19T11:53:36.550Z,48.47
2022-10-19T11:56:11.437Z,46.25
2022-10-19T11:58:50.749Z,45.61
2022-10-19T12:01:29.920Z,47.24
2022-10-19T12:04:30.882Z,48.77
2022-10-19T12:07:10.828Z,50.08
2022-10-19T12:09:51.690Z,48.33
2022-10-19T12:12:30.543Z,51.44
2022-10-19T12:15:13.735Z,50.89
2022-10-19T12:17:45.918Z,51.91
2022-10-19T12:20:23.026Z,52.40
2022-10-19T12:22:52.049Z,53.84
2022-10-19T12:25:23.050Z,53.54
2022-10-19T12:27:51.778Z,53.45
2022-10-19T12:30:23.093Z,51.40
2022-10-19T12:33:01.846Z,54.08
2022-10-19T12:35:44.721Z,55.46
2022-10-19T12:38:19.953Z,56.69
2022-10-19T12:40:56.560Z,58.35
2022-10-19T12:43:35.396Z,58.53
2022-10-19T12:46:16.898Z,59.90
2022-10-19T12:48:45.313Z,60.01
2022-10-19T12:51:18.108Z,63.98
2022-10-19T12:53:49.400Z,62.93
2022-10-19T12:56:22.246Z,69.75
2022-10-19T12:58:57.662Z,74.67
2022-10-19T13:01:29.580Z,73.02
2022-10-19T13:04:11.139Z,75.10
2022-10-19T13:06:43.634Z,78.42
2022-10-19T13:09:24.053Z,75.66
2022-10-19T13:12:44.694Z,75.96
2022-10-19T13:15:49.982Z,73.70
2022-10-19T13:19:08.450Z,77.35
2022-10-19T13:22:10.678Z,80.39
2022-10-19T13:27:36.821Z,82.85
2022-10-19T13:30:07.153Z,86.10
2022-10-19T13:32:43.317Z,87.41
2022-10-19T13:35:32.486Z,90.27
2022-10-19T13:38:26.377Z,91.41
2022-10-19T13:41:02.486Z,93.27
2022-10-19T13:43:33.627Z,93.87
2022-10-19T13:46:09.516Z,97.72
2022-10-19T13:49:10.036Z,99.03
2022-10-19T13:51:49.776Z,100.00
2022-10-19T13:54:35.494Z,100.00
2022-10-19T13:57:19.076Z,100.00
2022-10-19T14:00:07.284Z,100.00
2022-10-19T14:03:12.002Z,100.00
2022-10-19T14:06:03.770Z,99.00
2022-10-19T14:08:57.104Z,96.90
2022-10-19T14:11:31.948Z,90.94
2022-10-19T14:14:13.578Z,91.55
2022-10-19T14:16:59.667Z,86.70
2022-10-19T14:19:33.634Z,83.19
2022-10-19T14:22:18.467Z,83.25
2022-10-19T14:24:46.896Z,91.55
2022-10-19T14:27:26.503Z,95.00
2022-10-19T14:29:55.965Z,99.88
2022-10-19T14:32:26.415Z,100.00
2022-10-19T14:34:58.743Z,100.00
2022-10-19T14:37:37.466Z,100.00
2022-10-19T14:40:24.812Z,100.00
2022-10-19T14:43:02.597Z,100.00
2022-10-19T14:45:34.174Z,100.00
2022-10-19T14:48:04.311Z,100.00
2022-10-19T14:50:41.914Z,100.00
2022-10-19T14:53:32.278Z,100.00
2022-10-19T14:56:07.076Z,100.00
2022-10-19T14:58:41.838Z,100.00
2022-10-19T15:01:17.511Z,100.00
2022-10-19T15:03:47.522Z,100.00
2022-10-19T15:06:19.960Z,100.00
2022-10-19T15:08:57.001Z,100.00
2022-10-19T15:11:34.123Z,100.00
2022-10-19T15:14:08.176Z,100.00
2022-10-19T15:16:59.474Z,100.00
2022-10-19T15:19:31.078Z,100.00
2022-10-19T15:22:15.620Z,100.00
2022-10-19T15:25:00.824Z,100.00
2022-10-19T15:27:34.409Z,100.00
2022-10-19T15:30:23.770Z,100.00
2022-10-19T15:32:53.838Z,100.00
2022-10-19T15:35:26.797Z,100.00
2022-10-19T15:38:02.737Z,100.00
2022-10-19T15:40:38.924Z,100.00
2022-10-19T15:43:38.785Z,100.00
2022-10-19T15:46:28.223Z,100.00
2022-10-19T15:48:58.065Z,100.00
2022-10-19T15:51:38.828Z,100.00
2022-10-19T15:54:15.710Z,100.00
2022-10-19T15:56:46.238Z,100.00
2022-10-19T15:59:18.560Z,100.00
2022-10-19T16:02:02.047Z,100.00
2022-10-19T16:04:30.766Z,100.00
2022-10-19T16:06:59.219Z,100.00
2022-10-19T16:09:27.620Z,100.00
2022-10-19T16:11:57.284Z,100.00
2022-10-19T16:14:28.305Z,100.00
2022-10-19T16:17:00.896Z,100.00
2022-10-19T16:19:29.298Z,100.00
2022-10-19T16:21:57.788Z,100.00
2022-10-19T16:24:27.275Z,100.00
2022-10-19T16:26:56.005Z,100.00
2022-10-19T16:29:28.211Z,100.00
2022-10-19T16:31:59.403Z,100.00
2022-10-19T16:34:28.168Z,100.00
2022-10-19T16:36:56.937Z,100.00
2022-10-19T16:39:26.230Z,100.00
2022-10-19T16:41:54.776Z,100.00
2022-10-19T16:44:23.625Z,100.00
2022-10-19T16:46:52.469Z,100.00
2022-10-19T16:49:22.257Z,100.00
2022-10-19T16:51:53.267Z,100.00
2022-10-19T16:54:25.740Z,100.00
2022-10-19T16:56:55.495Z,100.00
2022-10-19T16:59:24.049Z,100.00
2022-10-19T17:01:53.665Z,100.00
2022-10-19T17:04:23.594Z,100.00
2022-10-19T17:06:52.194Z,100.00
2022-10-19T17:12:14.370Z,100.00
2022-10-19T17:14:44.881Z,100.00
2022-10-19T17:17:13.494Z,100.00
2022-10-19T17:19:43.373Z,100.00
2022-10-19T17:22:11.777Z,100.00
2022-10-19T17:24:40.133Z,100.00
2022-10-19T17:27:08.706Z,100.00
2022-10-19T17:29:37.276Z,100.00
2022-10-19T17:32:05.963Z,100.00
2022-10-19T17:34:35.540Z,100.00
2022-10-19T17:37:05.408Z,100.00
2022-10-19T17:39:34.041Z,100.00
2022-10-19T17:42:04.840Z,100.00
2022-10-19T17:44:33.396Z,100.00
2022-10-19T17:47:02.135Z,100.00
2022-10-19T17:49:30.664Z,100.00
2022-10-19T17:51:59.091Z,100.00
2022-10-19T17:54:28.997Z,100.00
2022-10-19T17:56:57.438Z,100.00
2022-10-19T17:59:34.974Z,100.00
2022-10-19T18:02:04.762Z,100.00
2022-10-19T18:04:33.366Z,100.00
2022-10-19T18:07:01.934Z,100.00
2022-10-19T18:09:32.025Z,100.00
2022-10-19T18:12:04.782Z,100.00
2022-10-19T18:14:35.664Z,100.00
2022-10-19T18:17:04.110Z,100.00
2022-10-19T18:19:33.057Z,100.00
2022-10-19T18:22:01.528Z,100.00
2022-10-19T18:24:32.769Z,100.00
2022-10-19T18:27:01.221Z,100.00
2022-10-19T18:29:29.650Z,100.00
2022-10-19T18:31:58.238Z,100.00
2022-10-19T18:34:27.842Z,100.00
2022-10-19T18:36:56.371Z,100.00
2022-10-19T18:39:24.844Z,100.00
2022-10-19T18:41:55.194Z,100.00
2022-10-19T18:44:27.241Z,100.00
2022-10-19T18:46:58.019Z,100.00
2022-10-19T18:49:27.030Z,100.00
2022-10-19T18:51:56.177Z,100.00
2022-10-19T18:54:26.308Z,100.00
2022-10-19T18:56:56.755Z,100.00
2022-10-19T18:59:25.251Z,100.00
2022-10-19T19:01:53.648Z,100.00
2022-10-19T19:04:22.062Z,100.00
2022-10-19T19:06:50.377Z,100.00
2022-10-19T19:09:19.159Z,100.00
2022-10-19T19:11:47.685Z,100.00
2022-10-19T19:14:20.880Z,100.00
2022-10-19T19:16:49.255Z,100.00
2022-10-19T19:19:19.651Z,100.00
2022-10-19T19:21:49.783Z,100.00
2022-10-19T19:24:20.489Z,100.00
2022-10-19T19:26:51.787Z,100.00
2022-10-19T19:29:22.866Z,100.00
2022-10-19T19:31:51.990Z,100.00
2022-10-19T19:34:20.698Z,100.00
2022-10-19T19:36:49.279Z,100.00
2022-10-19T19:39:19.819Z,100.00
2022-10-19T19:41:48.291Z,100.00
2022-10-19T19:44:16.750Z,100.00
2022-10-19T19:46:46.913Z,100.00
2022-10-19T19:49:15.690Z,100.00
2022-10-19T19:51:44.023Z,100.00
2022-10-19T19:54:12.458Z,100.00
2022-10-19T19:56:42.230Z,100.00
2022-10-19T19:59:12.257Z,100.00
2022-10-19T20:01:40.821Z,100.00
2022-10-19T20:04:11.481Z,100.00
2022-10-19T20:06:41.181Z,100.00
2022-10-19T20:09:10.593Z,100.00
2022-10-19T20:11:42.678Z,100.00
2022-10-19T20:14:11.956Z,100.00
2022-10-19T20:16:40.437Z,100.00
2022-10-19T20:19:12.281Z,100.00
2022-10-19T20:21:41.903Z,100.00
2022-10-19T20:24:10.744Z,100.00
2022-10-19T20:26:39.570Z,100.00
2022-10-19T20:29:08.272Z,100.00
2022-10-19T20:31:39.479Z,100.00
2022-10-19T20:34:12.190Z,100.00
2022-10-19T20:36:41.136Z,100.00
2022-10-19T20:39:10.368Z,100.00
2022-10-19T20:41:38.886Z,100.00
2022-10-19T20:44:07.428Z,100.00
2022-10-19T20:46:36.907Z,100.00
2022-10-19T20:49:05.453Z,100.00
2022-10-19T20:51:37.046Z,100.00
2022-10-19T20:54:07.432Z,100.00
2022-10-19T20:56:38.013Z,100.00
2022-10-19T20:59:08.866Z,100.00
2022-10-19T21:01:39.493Z,100.00
2022-10-19T21:04:09.809Z,100.00
2022-10-19T21:06:41.941Z,100.00
2022-10-19T21:09:12.000Z,100.00
2022-10-19T21:11:42.813Z,100.00
2022-10-19T21:14:14.047Z,100.00
2022-10-19T21:16:43.074Z,100.00
2022-10-19T21:19:14.065Z,100.00
2022-10-19T21:21:46.174Z,100.00
2022-10-19T21:24:17.148Z,100.00
2022-10-19T21:26:45.812Z,100.00
2022-10-19T21:29:15.709Z,100.00
2022-10-19T21:31:48.671Z,100.00
2022-10-19T21:34:20.329Z,100.00
2022-10-19T21:36:50.280Z,100.00
2022-10-19T21:39:19.469Z,100.00
2022-10-19T21:41:48.651Z,100.00
2022-10-19T21:44:18.494Z,100.00
2022-10-19T21:46:48.917Z,100.00
2022-10-19T21:49:17.819Z,100.00
2022-10-19T21:51:48.042Z,100.00
2022-10-19T21:54:20.006Z,100.00
2022-10-19T21:56:49.224Z,100.00
2022-10-19T21:59:18.322Z,100.00
2022-10-19T22:01:47.849Z,100.00
2022-10-19T22:04:17.810Z,100.00
2022-10-19T22:06:46.471Z,100.00
2022-10-19T22:09:18.638Z,100.00
2022-10-19T22:11:47.595Z,100.00
2022-10-19T22:14:17.521Z,100.00
2022-10-19T22:16:46.201Z,100.00
2022-10-19T22:19:14.639Z,100.00
2022-10-19T22:21:43.091Z,100.00
2022-10-19T22:24:13.938Z,100.00
2022-10-19T22:26:45.626Z,100.00
2022-10-19T22:29:15.957Z,100.00
2022-10-19T22:31:44.590Z,100.00
2022-10-19T22:34:15.390Z,100.00
2022-10-19T22:36:44.947Z,100.00
2022-10-19T22:39:13.970Z,100.00
2022-10-19T22:41:43.641Z,100.00
2022-10-19T22:44:11.970Z,100.00
2022-10-19T22:46:40.340Z,100.00
2022-10-19T22:51:43.237Z,100.00
2022-10-19T22:54:11.762Z,100.00
2022-10-19T22:56:40.547Z,100.00
2022-10-19T22:59:10.844Z,100.00
2022-10-19T23:01:39.363Z,100.00
2022-10-19T23:04:07.804Z,100.00
2022-10-19T23:06:36.232Z,100.00
2022-10-19T23:09:05.028Z,100.00
2022-10-19T23:11:33.500Z,100.00
2022-10-19T23:14:02.006Z,100.00
2022-10-19T23:16:31.767Z,100.00
2022-10-19T23:19:00.116Z,100.00
2022-10-19T23:21:28.613Z,100.00
2022-10-19T23:23:57.125Z,100.00
2022-10-19T23:26:26.765Z,100.00
2022-10-19T23:28:55.113Z,100.00
2022-10-19T23:31:25.236Z,100.00
2022-10-19T23:33:55.761Z,100.00
2022-10-19T23:36:26.831Z,100.00
2022-10-19T23:38:57.209Z,100.00
2022-10-19T23:41:25.917Z,100.00
2022-10-19T23:43:54.392Z,100.00
2022-10-19T23:46:22.811Z,100.00
2022-10-19T23:48:51.202Z,100.00
2022-10-19T23:51:22.799Z,100.00
2022-10-19T23:53:52.751Z,100.00
2022-10-19T23:56:23.618Z,100.00
2022-10-19T23:58:52.485Z,100.00
